createdAt,value
2018-12-20T00:03:27.109Z,98877.72
2018-12-20T00:08:33.252Z,98888.03
2018-12-20T00:13:38.041Z,98890.14
2018-12-20T00:18:43.037Z,98896.72
2018-12-20T00:23:48.097Z,98895.72
2018-12-20T00:28:52.918Z,98919.40
2018-12-20T00:33:57.999Z,98918.69
2018-12-20T00:39:03.123Z,98921.57
2018-12-20T00:44:07.989Z,98919.70
2018-12-20T00:49:13.052Z,98930.08
2018-12-20T00:59:55.966Z,98919.70
2018-12-20T01:05:12.374Z,98915.77
2018-12-20T01:10:17.379Z,98921.03
2018-12-20T01:15:22.213Z,98916.71
2018-12-20T01:20:27.196Z,98931.99
2018-12-20T01:25:33.025Z,98927.09
2018-12-20T01:30:38.169Z,98937.05
2018-12-20T01:35:43.047Z,98934.52
2018-12-20T01:40:47.921Z,98949.12
2018-12-20T01:45:52.849Z,98942.52
2018-12-20T01:50:57.625Z,98968.98
2018-12-20T01:56:02.451Z,98965.59
2018-12-20T02:01:07.606Z,98971.89
2018-12-20T02:06:12.769Z,98977.38
2018-12-20T02:16:49.909Z,98991.53
2018-12-20T02:21:54.874Z,99005.43
2018-12-20T02:26:59.851Z,99001.25
2018-12-20T02:32:04.688Z,99012.06
2018-12-20T02:37:09.634Z,99019.41
2018-12-20T02:42:14.716Z,99005.81
2018-12-20T02:47:21.754Z,99022.17
2018-12-20T02:52:26.683Z,99028.11
2018-12-20T02:57:31.813Z,99034.33
2018-12-20T03:02:36.816Z,99037.61
2018-12-20T03:13:19.493Z,99041.06
2018-12-20T03:18:28.223Z,99037.06
2018-12-20T03:23:33.940Z,99053.00
2018-12-20T03:28:39.328Z,99052.64
2018-12-20T03:33:44.621Z,99050.31
2018-12-20T03:38:49.511Z,99054.82
2018-12-20T03:43:54.613Z,99053.43
2018-12-20T03:48:59.618Z,99060.96
2018-12-20T03:54:04.686Z,99066.41
2018-12-20T03:59:09.798Z,99083.23
2018-12-20T04:04:14.678Z,99096.13
2018-12-20T04:09:19.946Z,99099.61
2018-12-20T04:14:25.029Z,99103.07
2018-12-20T04:19:30.305Z,99101.30
2018-12-20T04:24:35.104Z,99107.40
2018-12-20T04:29:40.275Z,99120.96
2018-12-20T04:34:45.268Z,99115.73
2018-12-20T04:39:50.551Z,99117.22
2018-12-20T04:44:55.277Z,99115.18
2018-12-20T04:50:00.128Z,99122.08
2018-12-20T04:55:05.307Z,99118.43
2018-12-20T05:00:12.318Z,99133.02
2018-12-20T05:05:17.410Z,99136.75
2018-12-20T05:10:22.608Z,99136.07
2018-12-20T05:15:27.622Z,99144.75
2018-12-20T05:20:32.747Z,99149.47
2018-12-20T05:25:37.723Z,99157.00
2018-12-20T05:30:42.568Z,99161.97
2018-12-20T05:35:47.679Z,99179.11
2018-12-20T05:40:52.444Z,99182.40
2018-12-20T05:46:04.475Z,99183.03
2018-12-20T05:51:04.192Z,99186.52
2018-12-20T05:56:08.982Z,99174.70
2018-12-20T06:01:13.858Z,99190.17
2018-12-20T06:06:18.975Z,99198.00
2018-12-20T06:11:35.929Z,99198.67
2018-12-20T06:16:40.827Z,99209.97
2018-12-20T06:21:45.793Z,99215.45
2018-12-20T06:26:50.482Z,99221.93
2018-12-20T06:31:55.347Z,99224.50
2018-12-20T06:37:00.012Z,99228.92
2018-12-20T06:42:04.908Z,99231.78
2018-12-20T06:47:09.798Z,99228.50
2018-12-20T06:52:14.679Z,99235.52
2018-12-20T06:57:19.443Z,99243.47
2018-12-20T07:02:24.338Z,99242.45
2018-12-20T07:13:01.594Z,99250.17
2018-12-20T07:18:06.586Z,99252.88
2018-12-20T07:23:11.609Z,99268.58
2018-12-20T07:28:16.620Z,99267.69
2018-12-20T07:33:21.415Z,99275.01
2018-12-20T07:38:26.332Z,99280.78
2018-12-20T07:43:31.039Z,99281.23
2018-12-20T07:48:35.746Z,99279.27
2018-12-20T07:53:40.564Z,99285.49
2018-12-20T07:58:45.414Z,99295.29
2018-12-20T08:03:50.503Z,99304.09
2018-12-20T08:08:55.117Z,99310.89
2018-12-20T08:13:59.962Z,99314.84
2018-12-20T08:19:04.928Z,99319.31
2018-12-20T08:24:09.861Z,99334.91
2018-12-20T08:29:14.767Z,99329.06
2018-12-20T08:34:19.642Z,99335.70
2018-12-20T08:39:24.492Z,99328.72
2018-12-20T08:44:29.408Z,99322.80
2018-12-20T08:49:34.593Z,99330.72
2018-12-20T08:54:39.435Z,99355.98
2018-12-20T08:59:44.308Z,99360.15
2018-12-20T09:04:49.134Z,99367.12
2018-12-20T09:09:53.902Z,99373.85
2018-12-20T09:14:58.538Z,99375.73
2018-12-20T09:20:03.508Z,99385.02
2018-12-20T09:25:08.461Z,99378.67
2018-12-20T09:30:13.262Z,99384.34
2018-12-20T09:35:18.195Z,99388.09
2018-12-20T09:40:23.154Z,99390.08
2018-12-20T09:45:27.908Z,99389.56
2018-12-20T09:50:32.763Z,99383.69
2018-12-20T09:55:37.583Z,99395.71
2018-12-20T10:00:42.322Z,99396.75
2018-12-20T10:05:47.043Z,99392.63
2018-12-20T10:10:51.799Z,99388.47
2018-12-20T10:15:56.641Z,99391.33
2018-12-20T10:21:01.459Z,99394.13
2018-12-20T10:26:06.293Z,99399.08
2018-12-20T10:31:11.173Z,99413.45
2018-12-20T10:36:16.088Z,99410.25
2018-12-20T10:41:21.016Z,99409.58
2018-12-20T10:46:25.808Z,99403.56
2018-12-20T10:51:31.433Z,99381.13
2018-12-20T10:56:36.212Z,99388.00
2018-12-20T11:01:45.034Z,99403.94
2018-12-20T11:06:53.858Z,99418.07
2018-12-20T11:12:02.741Z,99426.05
2018-12-20T11:17:07.617Z,99417.63
2018-12-20T11:22:12.418Z,99421.61
2018-12-20T11:27:17.319Z,99405.62
2018-12-20T11:32:22.083Z,99421.20
2018-12-20T11:37:26.727Z,99415.38
2018-12-20T11:42:31.579Z,99418.41
2018-12-20T11:47:36.362Z,99406.28
2018-12-20T11:52:42.488Z,99406.91
2018-12-20T11:57:47.630Z,99385.97
2018-12-20T12:02:52.539Z,99380.94
2018-12-20T12:07:57.309Z,99377.97
2018-12-20T12:13:02.052Z,99362.20
2018-12-20T12:18:06.995Z,99345.02
2018-12-20T12:23:11.768Z,99328.21
2018-12-20T12:28:16.592Z,99338.52
2018-12-20T12:33:21.369Z,99331.54
2018-12-20T12:38:26.202Z,99314.77
2018-12-20T12:43:31.068Z,99305.11
2018-12-20T12:48:36.110Z,99301.62
2018-12-20T12:53:41.049Z,99300.75
2018-12-20T12:58:46.007Z,99289.61
2018-12-20T13:03:50.787Z,99277.59
2018-12-20T13:08:55.628Z,99281.59
2018-12-20T13:14:00.428Z,99290.28
2018-12-20T13:19:05.247Z,99279.85
2018-12-20T13:24:10.249Z,99284.44
2018-12-20T13:29:15.010Z,99272.67
2018-12-20T13:34:20.008Z,99270.92
2018-12-20T13:39:24.928Z,99270.03
2018-12-20T13:44:29.908Z,99268.67
2018-12-20T13:49:34.788Z,99260.01
2018-12-20T13:54:39.639Z,99267.72
2018-12-20T13:59:44.539Z,99263.43
2018-12-20T14:04:49.389Z,99263.47
2018-12-20T14:09:54.348Z,99260.97
2018-12-20T14:14:59.267Z,99259.27
2018-12-20T14:20:04.687Z,99244.74
2018-12-20T14:25:09.788Z,99242.08
2018-12-20T14:30:14.829Z,99234.41
2018-12-20T14:35:19.647Z,99237.52
2018-12-20T14:40:24.607Z,99231.02
2018-12-20T14:45:29.468Z,99234.39
2018-12-20T14:50:34.868Z,99222.46
2018-12-20T14:55:40.767Z,99230.42
2018-12-20T15:06:24.027Z,99238.23
2018-12-20T15:11:29.029Z,99251.17
2018-12-20T15:16:33.808Z,99240.58
2018-12-20T15:21:38.906Z,99243.70
2018-12-20T15:26:43.767Z,99229.33
2018-12-20T15:31:53.392Z,99233.65
2018-12-20T15:36:55.666Z,99232.70
2018-12-20T15:42:00.707Z,99216.87
2018-12-20T15:47:05.610Z,99233.22
2018-12-20T15:52:10.547Z,99228.66
2018-12-20T15:57:15.407Z,99224.40
2018-12-20T16:02:20.206Z,99217.02
2018-12-20T16:07:25.107Z,99203.60
2018-12-20T16:12:29.909Z,99200.23
2018-12-20T16:17:35.151Z,99197.41
2018-12-20T16:22:39.927Z,99180.11
2018-12-20T16:27:44.767Z,99177.16
2018-12-20T16:32:49.707Z,99170.81
2018-12-20T16:37:54.787Z,99171.72
2018-12-20T16:42:59.571Z,99160.85
2018-12-20T16:48:04.507Z,99158.58
2018-12-20T16:53:09.367Z,99138.97
2018-12-20T16:58:14.446Z,99129.50
2018-12-20T17:03:19.326Z,99126.39
2018-12-20T17:08:24.266Z,99116.59
2018-12-20T17:13:29.291Z,99119.02
2018-12-20T17:18:35.129Z,99104.85
2018-12-20T17:23:40.151Z,99091.94
2018-12-20T17:28:45.066Z,99091.09
2018-12-20T17:33:50.046Z,99076.16
2018-12-20T17:38:54.939Z,99084.65
2018-12-20T17:43:59.706Z,99063.25
2018-12-20T17:49:04.689Z,99050.91
2018-12-20T17:54:09.746Z,99049.81
2018-12-20T17:59:14.706Z,99043.75
2018-12-20T18:04:19.707Z,99034.00
2018-12-20T18:09:24.668Z,99024.81
2018-12-20T18:14:29.607Z,99018.52
2018-12-20T18:19:38.984Z,99009.70
2018-12-20T18:24:42.355Z,98998.52
2018-12-20T18:29:47.439Z,98984.41
2018-12-20T18:34:52.367Z,98983.35
2018-12-20T18:39:57.987Z,98974.00
2018-12-20T18:45:03.127Z,98963.84
2018-12-20T18:50:09.987Z,98944.68
2018-12-20T18:55:14.993Z,98949.45
2018-12-20T19:00:19.928Z,98935.47
2018-12-20T19:05:24.766Z,98927.25
2018-12-20T19:10:31.807Z,98922.54
2018-12-20T19:15:36.667Z,98918.41
2018-12-20T19:20:41.648Z,98911.27
2018-12-20T19:25:46.386Z,98887.14
2018-12-20T19:30:51.288Z,98888.01
2018-12-20T19:35:56.179Z,98869.19
2018-12-20T19:41:01.198Z,98860.41
2018-12-20T19:46:06.155Z,98862.12
2018-12-20T19:51:10.899Z,98853.81
2018-12-20T19:56:15.839Z,98852.10
2018-12-20T20:01:20.783Z,98857.15
2018-12-20T20:06:25.693Z,98847.97
2018-12-20T20:11:30.648Z,98842.08
2018-12-20T20:21:57.689Z,98832.97
2018-12-20T20:27:02.548Z,98822.45
2018-12-20T20:32:07.529Z,98821.32
2018-12-20T20:37:12.373Z,98815.35
2018-12-20T20:42:17.168Z,98810.09
2018-12-20T20:47:21.965Z,98805.88
2018-12-20T20:52:26.698Z,98789.52
2018-12-20T20:57:31.568Z,98792.69
2018-12-20T21:02:36.508Z,98798.41
2018-12-20T21:07:41.778Z,98792.84
2018-12-20T21:12:46.703Z,98784.67
2018-12-20T21:17:51.479Z,98774.16
2018-12-20T21:22:56.399Z,98765.09
2018-12-20T21:28:01.223Z,98754.66
2018-12-20T21:33:06.319Z,98739.00
2018-12-20T21:38:11.225Z,98727.07
2018-12-20T21:43:16.118Z,98722.11
2018-12-20T21:48:21.073Z,98713.23
2018-12-20T21:53:25.781Z,98699.88
2018-12-20T21:58:30.714Z,98684.15
2018-12-20T22:03:35.943Z,98693.91
2018-12-20T22:08:40.809Z,98701.91
2018-12-20T22:13:45.551Z,98687.23
2018-12-20T22:18:50.349Z,98672.05
2018-12-20T22:23:55.161Z,98654.98
2018-12-20T22:28:59.938Z,98652.42
2018-12-20T22:34:04.864Z,98658.35
2018-12-20T22:39:09.569Z,98642.79
2018-12-20T22:44:14.484Z,98624.88
2018-12-20T22:49:19.493Z,98594.55
2018-12-20T22:54:24.324Z,98589.41
2018-12-20T22:59:29.043Z,98571.17
2018-12-20T23:04:33.933Z,98571.17
2018-12-20T23:09:38.739Z,98563.53
2018-12-20T23:14:43.645Z,98543.33
2018-12-20T23:19:49.138Z,98528.86
2018-12-20T23:24:54.095Z,98526.56
2018-12-20T23:29:58.861Z,98510.35
2018-12-20T23:35:03.876Z,98509.30
2018-12-20T23:40:08.618Z,98488.78
2018-12-20T23:45:13.473Z,98488.22
2018-12-20T23:50:18.423Z,98475.52
2018-12-20T23:55:23.366Z,98467.96
